sensor_id;sensor_type;location;lat;lon;timestamp;temperature;humidity
45619;DHT22;31343;47.520;19.144;2022-12-18T00:00:46;-0.90;99.90
45619;DHT22;31343;47.520;19.144;2022-12-18T00:03:13;-0.80;99.90
45619;DHT22;31343;47.520;19.144;2022-12-18T00:05:47;-0.80;99.90
45619;DHT22;31343;47.520;19.144;2022-12-18T00:08:13;-0.80;99.90
45619;DHT22;31343;47.520;19.144;2022-12-18T00:10:39;-0.90;99.90
45619;DHT22;31343;47.520;19.144;2022-12-18T00:13:04;-1.00;99.90
45619;DHT22;31343;47.520;19.144;2022-12-18T00:15:30;-1.00;99.90
45619;DHT22;31343;47.520;19.144;2022-12-18T00:17:58;-0.90;99.90
45619;DHT22;31343;47.520;19.144;2022-12-18T00:20:23;-1.00;99.90
45619;DHT22;31343;47.520;19.144;2022-12-18T00:22:52;-1.00;99.90
45619;DHT22;31343;47.520;19.144;2022-12-18T00:25:18;-0.90;99.90
45619;DHT22;31343;47.520;19.144;2022-12-18T00:27:44;-0.90;99.90
45619;DHT22;31343;47.520;19.144;2022-12-18T00:30:10;-0.90;99.90
45619;DHT22;31343;47.520;19.144;2022-12-18T00:32:36;-0.90;99.90
45619;DHT22;31343;47.520;19.144;2022-12-18T00:35:01;-0.80;99.90
45619;DHT22;31343;47.520;19.144;2022-12-18T00:37:27;-0.90;99.90
45619;DHT22;31343;47.520;19.144;2022-12-18T00:39:53;-0.90;99.90
45619;DHT22;31343;47.520;19.144;2022-12-18T00:42:18;-0.90;99.90
45619;DHT22;31343;47.520;19.144;2022-12-18T00:45:03;-0.90;99.90
45619;DHT22;31343;47.520;19.144;2022-12-18T00:47:29;-0.80;99.90
45619;DHT22;31343;47.520;19.144;2022-12-18T00:49:54;-0.80;99.90
45619;DHT22;31343;47.520;19.144;2022-12-18T00:52:20;-0.90;99.90
45619;DHT22;31343;47.520;19.144;2022-12-18T00:54:46;-0.90;99.90
45619;DHT22;31343;47.520;19.144;2022-12-18T00:57:11;-0.90;99.90
45619;DHT22;31343;47.520;19.144;2022-12-18T00:59:37;-1.00;99.90
45619;DHT22;31343;47.520;19.144;2022-12-18T01:02:03;-1.00;99.90
45619;DHT22;31343;47.520;19.144;2022-12-18T01:04:31;-1.00;99.90
45619;DHT22;31343;47.520;19.144;2022-12-18T01:06:58;-1.10;99.90
45619;DHT22;31343;47.520;19.144;2022-12-18T01:09:23;-1.10;99.90
45619;DHT22;31343;47.520;19.144;2022-12-18T01:11:49;-1.10;99.90
45619;DHT22;31343;47.520;19.144;2022-12-18T01:14:15;-1.10;99.90
45619;DHT22;31343;47.520;19.144;2022-12-18T01:16:41;-1.20;99.90
45619;DHT22;31343;47.520;19.144;2022-12-18T01:19:06;-1.10;99.90
45619;DHT22;31343;47.520;19.144;2022-12-18T01:21:32;-1.10;99.90
45619;DHT22;31343;47.520;19.144;2022-12-18T01:23:58;-1.20;99.90
45619;DHT22;31343;47.520;19.144;2022-12-18T01:26:24;-1.10;99.90
45619;DHT22;31343;47.520;19.144;2022-12-18T01:28:50;-1.10;99.90
45619;DHT22;31343;47.520;19.144;2022-12-18T01:31:22;-1.20;99.90
45619;DHT22;31343;47.520;19.144;2022-12-18T01:33:49;-1.20;99.90
45619;DHT22;31343;47.520;19.144;2022-12-18T01:36:24;-1.20;99.90
45619;DHT22;31343;47.520;19.144;2022-12-18T01:38:51;-1.20;99.90
45619;DHT22;31343;47.520;19.144;2022-12-18T01:41:20;-1.20;99.90
45619;DHT22;31343;47.520;19.144;2022-12-18T01:43:54;-1.20;99.90
45619;DHT22;31343;47.520;19.144;2022-12-18T01:46:23;-1.20;99.90
45619;DHT22;31343;47.520;19.144;2022-12-18T01:48:52;-1.20;99.90
45619;DHT22;31343;47.520;19.144;2022-12-18T01:51:19;-1.20;99.90
45619;DHT22;31343;47.520;19.144;2022-12-18T01:53:46;-1.10;99.90
45619;DHT22;31343;47.520;19.144;2022-12-18T01:56:15;-1.10;99.90
45619;DHT22;31343;47.520;19.144;2022-12-18T02:01:07;-1.10;99.90
45619;DHT22;31343;47.520;19.144;2022-12-18T02:03:33;-1.00;99.90
45619;DHT22;31343;47.520;19.144;2022-12-18T02:09:17;-0.90;99.90
45619;DHT22;31343;47.520;19.144;2022-12-18T02:11:54;-0.80;99.90
45619;DHT22;31343;47.520;19.144;2022-12-18T02:14:35;-0.90;99.90
45619;DHT22;31343;47.520;19.144;2022-12-18T02:17:04;-0.90;99.90
45619;DHT22;31343;47.520;19.144;2022-12-18T02:20:16;-0.80;99.90
45619;DHT22;31343;47.520;19.144;2022-12-18T02:26:18;-0.90;99.90
45619;DHT22;31343;47.520;19.144;2022-12-18T02:28:59;-0.90;99.90
45619;DHT22;31343;47.520;19.144;2022-12-18T02:31:30;-0.90;99.90
45619;DHT22;31343;47.520;19.144;2022-12-18T02:34:00;-0.90;99.90
45619;DHT22;31343;47.520;19.144;2022-12-18T02:36:28;-0.90;99.90
45619;DHT22;31343;47.520;19.144;2022-12-18T02:38:55;-0.90;99.90
45619;DHT22;31343;47.520;19.144;2022-12-18T02:41:22;-0.90;99.90
45619;DHT22;31343;47.520;19.144;2022-12-18T02:43:52;-1.00;99.90
45619;DHT22;31343;47.520;19.144;2022-12-18T02:46:31;-1.00;99.90
45619;DHT22;31343;47.520;19.144;2022-12-18T02:49:26;-0.90;99.90
45619;DHT22;31343;47.520;19.144;2022-12-18T02:52:01;-0.90;99.90
45619;DHT22;31343;47.520;19.144;2022-12-18T02:57:36;-0.90;99.90
45619;DHT22;31343;47.520;19.144;2022-12-18T03:00:21;-0.90;99.90
45619;DHT22;31343;47.520;19.144;2022-12-18T03:02:53;-0.80;99.90
45619;DHT22;31343;47.520;19.144;2022-12-18T03:05:24;-0.90;99.90
45619;DHT22;31343;47.520;19.144;2022-12-18T03:07:58;-0.90;99.90
45619;DHT22;31343;47.520;19.144;2022-12-18T03:10:29;-1.00;99.90
45619;DHT22;31343;47.520;19.144;2022-12-18T03:13:12;-1.00;99.90
45619;DHT22;31343;47.520;19.144;2022-12-18T03:15:42;-0.90;99.90
45619;DHT22;31343;47.520;19.144;2022-12-18T03:18:25;-0.90;99.90
45619;DHT22;31343;47.520;19.144;2022-12-18T03:20:51;-0.90;99.90
45619;DHT22;31343;47.520;19.144;2022-12-18T03:23:22;-1.00;99.90
45619;DHT22;31343;47.520;19.144;2022-12-18T03:25:52;-1.10;99.90
45619;DHT22;31343;47.520;19.144;2022-12-18T03:28:22;-1.20;99.90
45619;DHT22;31343;47.520;19.144;2022-12-18T03:30:53;-1.20;99.90
45619;DHT22;31343;47.520;19.144;2022-12-18T03:35:53;-1.40;99.90
45619;DHT22;31343;47.520;19.144;2022-12-18T03:38:19;-1.40;99.90
45619;DHT22;31343;47.520;19.144;2022-12-18T03:46:23;-1.40;99.90
45619;DHT22;31343;47.520;19.144;2022-12-18T03:48:55;-1.50;99.90
45619;DHT22;31343;47.520;19.144;2022-12-18T03:51:49;-1.50;99.90
45619;DHT22;31343;47.520;19.144;2022-12-18T03:54:16;-1.60;99.90
45619;DHT22;31343;47.520;19.144;2022-12-18T03:56:46;-1.50;99.90
45619;DHT22;31343;47.520;19.144;2022-12-18T03:59:15;-1.60;99.90
45619;DHT22;31343;47.520;19.144;2022-12-18T04:01:46;-1.60;99.90
45619;DHT22;31343;47.520;19.144;2022-12-18T04:04:14;-1.70;99.90
45619;DHT22;31343;47.520;19.144;2022-12-18T04:06:43;-1.70;99.90
45619;DHT22;31343;47.520;19.144;2022-12-18T04:09:10;-1.70;99.90
45619;DHT22;31343;47.520;19.144;2022-12-18T04:11:36;-1.70;99.90
45619;DHT22;31343;47.520;19.144;2022-12-18T04:14:02;-1.70;99.90
45619;DHT22;31343;47.520;19.144;2022-12-18T04:16:28;-1.80;99.90
45619;DHT22;31343;47.520;19.144;2022-12-18T04:18:54;-1.80;99.90
45619;DHT22;31343;47.520;19.144;2022-12-18T04:21:20;-1.80;99.90
45619;DHT22;31343;47.520;19.144;2022-12-18T04:23:46;-1.80;99.90
45619;DHT22;31343;47.520;19.144;2022-12-18T04:26:11;-1.80;99.90
45619;DHT22;31343;47.520;19.144;2022-12-18T04:28:37;-1.80;99.90
45619;DHT22;31343;47.520;19.144;2022-12-18T04:31:03;-1.90;99.90
45619;DHT22;31343;47.520;19.144;2022-12-18T04:33:29;-1.90;99.90
45619;DHT22;31343;47.520;19.144;2022-12-18T04:35:54;-1.90;99.90
45619;DHT22;31343;47.520;19.144;2022-12-18T04:38:20;-1.90;99.90
45619;DHT22;31343;47.520;19.144;2022-12-18T04:40:47;-1.90;99.90
45619;DHT22;31343;47.520;19.144;2022-12-18T04:43:12;-1.90;99.90
45619;DHT22;31343;47.520;19.144;2022-12-18T04:45:38;-1.90;99.90
45619;DHT22;31343;47.520;19.144;2022-12-18T04:48:04;-2.00;99.90
45619;DHT22;31343;47.520;19.144;2022-12-18T04:50:30;-1.90;99.90
45619;DHT22;31343;47.520;19.144;2022-12-18T04:52:57;-2.00;99.90
45619;DHT22;31343;47.520;19.144;2022-12-18T04:55:22;-2.00;99.90
45619;DHT22;31343;47.520;19.144;2022-12-18T04:57:48;-2.00;99.90
45619;DHT22;31343;47.520;19.144;2022-12-18T05:00:14;-2.00;99.90
45619;DHT22;31343;47.520;19.144;2022-12-18T05:02:40;-2.10;99.90
45619;DHT22;31343;47.520;19.144;2022-12-18T05:05:06;-2.10;99.90
45619;DHT22;31343;47.520;19.144;2022-12-18T05:07:31;-2.10;99.90
45619;DHT22;31343;47.520;19.144;2022-12-18T05:09:57;-2.10;99.90
45619;DHT22;31343;47.520;19.144;2022-12-18T05:12:23;-2.10;99.90
45619;DHT22;31343;47.520;19.144;2022-12-18T05:14:48;-2.10;99.90
45619;DHT22;31343;47.520;19.144;2022-12-18T05:17:14;-2.10;99.90
45619;DHT22;31343;47.520;19.144;2022-12-18T05:19:39;-2.20;99.90
45619;DHT22;31343;47.520;19.144;2022-12-18T05:22:06;-2.10;99.90
45619;DHT22;31343;47.520;19.144;2022-12-18T05:24:32;-2.00;99.90
45619;DHT22;31343;47.520;19.144;2022-12-18T05:26:58;-2.10;99.90
45619;DHT22;31343;47.520;19.144;2022-12-18T05:29:23;-2.10;99.90
45619;DHT22;31343;47.520;19.144;2022-12-18T05:31:49;-2.10;99.90
45619;DHT22;31343;47.520;19.144;2022-12-18T05:34:15;-2.10;99.90
45619;DHT22;31343;47.520;19.144;2022-12-18T05:36:41;-2.20;99.90
45619;DHT22;31343;47.520;19.144;2022-12-18T05:39:07;-2.20;99.90
45619;DHT22;31343;47.520;19.144;2022-12-18T05:41:33;-2.40;99.90
45619;DHT22;31343;47.520;19.144;2022-12-18T05:43:59;-2.30;99.90
45619;DHT22;31343;47.520;19.144;2022-12-18T05:46:25;-2.30;99.90
45619;DHT22;31343;47.520;19.144;2022-12-18T05:48:51;-2.30;99.90
45619;DHT22;31343;47.520;19.144;2022-12-18T05:51:20;-2.50;99.90
45619;DHT22;31343;47.520;19.144;2022-12-18T05:53:46;-2.60;99.90
45619;DHT22;31343;47.520;19.144;2022-12-18T05:56:15;-2.60;99.90
45619;DHT22;31343;47.520;19.144;2022-12-18T05:58:44;-2.70;99.90
45619;DHT22;31343;47.520;19.144;2022-12-18T06:01:15;-2.60;99.90
45619;DHT22;31343;47.520;19.144;2022-12-18T06:03:42;-2.60;99.90
45619;DHT22;31343;47.520;19.144;2022-12-18T06:06:16;-2.60;99.90
45619;DHT22;31343;47.520;19.144;2022-12-18T06:08:42;-2.70;99.90
45619;DHT22;31343;47.520;19.144;2022-12-18T06:11:07;-2.60;99.90
45619;DHT22;31343;47.520;19.144;2022-12-18T06:13:33;-2.60;99.90
45619;DHT22;31343;47.520;19.144;2022-12-18T06:16:02;-2.70;99.90
45619;DHT22;31343;47.520;19.144;2022-12-18T06:18:28;-2.60;99.90
45619;DHT22;31343;47.520;19.144;2022-12-18T06:20:59;-2.70;99.90
45619;DHT22;31343;47.520;19.144;2022-12-18T06:23:25;-2.70;99.90
45619;DHT22;31343;47.520;19.144;2022-12-18T06:25:51;-2.70;99.90
45619;DHT22;31343;47.520;19.144;2022-12-18T06:28:17;-2.80;99.90
45619;DHT22;31343;47.520;19.144;2022-12-18T06:30:46;-2.80;99.90
45619;DHT22;31343;47.520;19.144;2022-12-18T06:33:12;-2.80;99.90
45619;DHT22;31343;47.520;19.144;2022-12-18T06:35:38;-2.80;99.90
45619;DHT22;31343;47.520;19.144;2022-12-18T06:38:03;-2.80;99.90
45619;DHT22;31343;47.520;19.144;2022-12-18T06:40:29;-2.80;99.90
45619;DHT22;31343;47.520;19.144;2022-12-18T06:42:55;-2.80;99.90
45619;DHT22;31343;47.520;19.144;2022-12-18T06:45:21;-2.70;99.90
45619;DHT22;31343;47.520;19.144;2022-12-18T06:47:46;-2.80;99.90
45619;DHT22;31343;47.520;19.144;2022-12-18T06:50:12;-2.80;99.90
45619;DHT22;31343;47.520;19.144;2022-12-18T06:52:39;-2.80;99.90
45619;DHT22;31343;47.520;19.144;2022-12-18T06:55:07;-2.80;99.90
45619;DHT22;31343;47.520;19.144;2022-12-18T06:57:33;-2.70;99.90
45619;DHT22;31343;47.520;19.144;2022-12-18T06:59:59;-2.60;99.90
45619;DHT22;31343;47.520;19.144;2022-12-18T07:02:24;-2.40;99.90
45619;DHT22;31343;47.520;19.144;2022-12-18T07:04:50;-2.10;99.90
45619;DHT22;31343;47.520;19.144;2022-12-18T07:07:16;-1.80;99.90
45619;DHT22;31343;47.520;19.144;2022-12-18T07:09:42;-1.70;99.90
45619;DHT22;31343;47.520;19.144;2022-12-18T07:12:07;-1.40;99.90
45619;DHT22;31343;47.520;19.144;2022-12-18T07:14:33;-1.20;99.90
45619;DHT22;31343;47.520;19.144;2022-12-18T07:16:59;-0.90;99.90
45619;DHT22;31343;47.520;19.144;2022-12-18T07:19:25;-0.80;99.90
45619;DHT22;31343;47.520;19.144;2022-12-18T07:21:51;-0.70;99.90
45619;DHT22;31343;47.520;19.144;2022-12-18T07:24:17;-0.90;99.90
45619;DHT22;31343;47.520;19.144;2022-12-18T07:26:45;-1.10;99.90
45619;DHT22;31343;47.520;19.144;2022-12-18T07:29:10;-0.90;99.90
45619;DHT22;31343;47.520;19.144;2022-12-18T07:31:36;-0.90;99.90
45619;DHT22;31343;47.520;19.144;2022-12-18T07:34:02;-0.90;99.90
45619;DHT22;31343;47.520;19.144;2022-12-18T07:36:27;-0.90;99.90
45619;DHT22;31343;47.520;19.144;2022-12-18T07:38:54;-0.90;99.90
45619;DHT22;31343;47.520;19.144;2022-12-18T07:41:20;-1.20;99.90
45619;DHT22;31343;47.520;19.144;2022-12-18T07:43:46;-1.00;99.90
45619;DHT22;31343;47.520;19.144;2022-12-18T07:46:13;-0.60;99.90
45619;DHT22;31343;47.520;19.144;2022-12-18T07:48:40;-0.60;99.90
45619;DHT22;31343;47.520;19.144;2022-12-18T07:51:07;-0.40;99.90
45619;DHT22;31343;47.520;19.144;2022-12-18T07:53:34;-0.30;99.90
45619;DHT22;31343;47.520;19.144;2022-12-18T07:56:03;-0.40;99.90
45619;DHT22;31343;47.520;19.144;2022-12-18T07:58:29;-0.60;99.90
45619;DHT22;31343;47.520;19.144;2022-12-18T08:01:06;-0.80;99.90
45619;DHT22;31343;47.520;19.144;2022-12-18T08:03:32;-0.70;99.90
45619;DHT22;31343;47.520;19.144;2022-12-18T08:06:00;-0.60;99.90
45619;DHT22;31343;47.520;19.144;2022-12-18T08:08:25;-0.60;99.90
45619;DHT22;31343;47.520;19.144;2022-12-18T08:10:51;-0.30;99.90
45619;DHT22;31343;47.520;19.144;2022-12-18T08:13:16;-0.20;99.90
45619;DHT22;31343;47.520;19.144;2022-12-18T08:15:42;-0.10;99.90
45619;DHT22;31343;47.520;19.144;2022-12-18T08:18:08;-0.20;99.90
45619;DHT22;31343;47.520;19.144;2022-12-18T08:20:33;-0.10;99.90
45619;DHT22;31343;47.520;19.144;2022-12-18T08:22:59;0.10;99.90
45619;DHT22;31343;47.520;19.144;2022-12-18T08:25:25;0.20;99.90
45619;DHT22;31343;47.520;19.144;2022-12-18T08:27:50;0.20;99.90
45619;DHT22;31343;47.520;19.144;2022-12-18T08:30:16;0.30;99.90
45619;DHT22;31343;47.520;19.144;2022-12-18T08:32:42;0.20;99.90
45619;DHT22;31343;47.520;19.144;2022-12-18T08:35:08;0.20;99.90
45619;DHT22;31343;47.520;19.144;2022-12-18T08:37:34;0.10;99.90
45619;DHT22;31343;47.520;19.144;2022-12-18T08:40:00;0.30;99.90
45619;DHT22;31343;47.520;19.144;2022-12-18T08:42:25;0.50;99.90
45619;DHT22;31343;47.520;19.144;2022-12-18T08:45:10;0.60;99.90
45619;DHT22;31343;47.520;19.144;2022-12-18T08:47:35;0.60;99.90
45619;DHT22;31343;47.520;19.144;2022-12-18T08:50:01;0.60;99.90
45619;DHT22;31343;47.520;19.144;2022-12-18T08:52:27;0.70;99.90
45619;DHT22;31343;47.520;19.144;2022-12-18T08:54:53;0.80;99.90
45619;DHT22;31343;47.520;19.144;2022-12-18T08:57:19;0.80;99.90
45619;DHT22;31343;47.520;19.144;2022-12-18T08:59:45;0.70;99.90
45619;DHT22;31343;47.520;19.144;2022-12-18T09:02:11;0.70;99.90
45619;DHT22;31343;47.520;19.144;2022-12-18T09:04:37;0.80;99.90
45619;DHT22;31343;47.520;19.144;2022-12-18T09:07:03;0.90;99.90
45619;DHT22;31343;47.520;19.144;2022-12-18T09:09:28;1.10;99.90
45619;DHT22;31343;47.520;19.144;2022-12-18T09:11:54;1.30;99.90
45619;DHT22;31343;47.520;19.144;2022-12-18T09:14:19;1.40;99.90
45619;DHT22;31343;47.520;19.144;2022-12-18T09:16:45;1.50;99.90
45619;DHT22;31343;47.520;19.144;2022-12-18T09:19:11;1.60;99.90
45619;DHT22;31343;47.520;19.144;2022-12-18T09:21:36;1.40;99.90
45619;DHT22;31343;47.520;19.144;2022-12-18T09:24:04;1.20;99.90
45619;DHT22;31343;47.520;19.144;2022-12-18T09:26:30;1.30;99.90
45619;DHT22;31343;47.520;19.144;2022-12-18T09:28:56;1.40;99.90
45619;DHT22;31343;47.520;19.144;2022-12-18T09:31:23;1.50;99.90
45619;DHT22;31343;47.520;19.144;2022-12-18T09:33:49;1.60;99.90
45619;DHT22;31343;47.520;19.144;2022-12-18T09:36:16;1.80;99.90
45619;DHT22;31343;47.520;19.144;2022-12-18T09:38:43;1.90;99.90
45619;DHT22;31343;47.520;19.144;2022-12-18T09:41:40;2.10;99.90
45619;DHT22;31343;47.520;19.144;2022-12-18T09:44:15;2.10;99.90
45619;DHT22;31343;47.520;19.144;2022-12-18T09:46:50;1.80;99.90
45619;DHT22;31343;47.520;19.144;2022-12-18T09:49:21;1.60;99.90
45619;DHT22;31343;47.520;19.144;2022-12-18T09:51:53;1.90;99.90
45619;DHT22;31343;47.520;19.144;2022-12-18T09:54:34;1.90;99.90
45619;DHT22;31343;47.520;19.144;2022-12-18T09:57:01;1.90;99.90
45619;DHT22;31343;47.520;19.144;2022-12-18T09:59:32;2.10;99.90
45619;DHT22;31343;47.520;19.144;2022-12-18T10:01:59;2.20;99.90
45619;DHT22;31343;47.520;19.144;2022-12-18T10:04:26;2.30;99.90
45619;DHT22;31343;47.520;19.144;2022-12-18T10:07:06;2.40;99.90
45619;DHT22;31343;47.520;19.144;2022-12-18T10:12:31;2.30;99.90
45619;DHT22;31343;47.520;19.144;2022-12-18T10:15:32;2.40;99.90
45619;DHT22;31343;47.520;19.144;2022-12-18T10:20:47;2.60;99.90
45619;DHT22;31343;47.520;19.144;2022-12-18T10:23:33;2.50;99.90
45619;DHT22;31343;47.520;19.144;2022-12-18T10:26:07;2.80;99.90
45619;DHT22;31343;47.520;19.144;2022-12-18T10:28:37;2.80;99.90
45619;DHT22;31343;47.520;19.144;2022-12-18T10:31:15;2.90;99.90
45619;DHT22;31343;47.520;19.144;2022-12-18T10:33:43;3.10;99.90
45619;DHT22;31343;47.520;19.144;2022-12-18T10:36:09;3.20;99.80
45619;DHT22;31343;47.520;19.144;2022-12-18T10:38:35;3.30;99.50
45619;DHT22;31343;47.520;19.144;2022-12-18T10:41:03;3.20;98.70
45619;DHT22;31343;47.520;19.144;2022-12-18T10:43:38;2.90;98.70
45619;DHT22;31343;47.520;19.144;2022-12-18T10:51:06;3.30;99.40
45619;DHT22;31343;47.520;19.144;2022-12-18T10:53:34;3.30;98.70
45619;DHT22;31343;47.520;19.144;2022-12-18T10:56:00;3.50;99.00
45619;DHT22;31343;47.520;19.144;2022-12-18T10:58:30;3.60;99.20
45619;DHT22;31343;47.520;19.144;2022-12-18T11:01:08;3.70;97.80
45619;DHT22;31343;47.520;19.144;2022-12-18T11:03:59;3.50;97.70
45619;DHT22;31343;47.520;19.144;2022-12-18T11:06:26;3.50;97.60
45619;DHT22;31343;47.520;19.144;2022-12-18T11:09:03;3.50;98.10
45619;DHT22;31343;47.520;19.144;2022-12-18T11:11:31;3.80;97.50
45619;DHT22;31343;47.520;19.144;2022-12-18T11:14:02;4.10;96.90
45619;DHT22;31343;47.520;19.144;2022-12-18T11:16:29;4.30;95.80
45619;DHT22;31343;47.520;19.144;2022-12-18T11:19:30;4.30;95.70
45619;DHT22;31343;47.520;19.144;2022-12-18T11:21:57;4.40;95.10
45619;DHT22;31343;47.520;19.144;2022-12-18T11:24:33;4.50;95.50
45619;DHT22;31343;47.520;19.144;2022-12-18T11:27:04;4.40;94.90
45619;DHT22;31343;47.520;19.144;2022-12-18T11:29:37;4.60;94.00
45619;DHT22;31343;47.520;19.144;2022-12-18T11:35:34;5.30;93.70
45619;DHT22;31343;47.520;19.144;2022-12-18T11:38:23;5.50;94.10
45619;DHT22;31343;47.520;19.144;2022-12-18T11:44:01;6.00;93.60
45619;DHT22;31343;47.520;19.144;2022-12-18T11:46:53;6.30;93.10
45619;DHT22;31343;47.520;19.144;2022-12-18T11:49:33;6.40;91.90
45619;DHT22;31343;47.520;19.144;2022-12-18T11:52:14;6.60;92.50
45619;DHT22;31343;47.520;19.144;2022-12-18T11:54:41;6.60;92.40
45619;DHT22;31343;47.520;19.144;2022-12-18T12:00:21;7.50;91.40
45619;DHT22;31343;47.520;19.144;2022-12-18T12:08:36;7.00;90.90
45619;DHT22;31343;47.520;19.144;2022-12-18T12:20:02;6.90;90.70
45619;DHT22;31343;47.520;19.144;2022-12-18T12:25:28;6.80;89.50
45619;DHT22;31343;47.520;19.144;2022-12-18T12:31:07;7.00;90.40
45619;DHT22;31343;47.520;19.144;2022-12-18T12:36:23;8.10;89.10
45619;DHT22;31343;47.520;19.144;2022-12-18T12:38:58;8.60;87.60
45619;DHT22;31343;47.520;19.144;2022-12-18T12:41:27;9.40;85.60
45619;DHT22;31343;47.520;19.144;2022-12-18T12:44:27;9.80;83.30
45619;DHT22;31343;47.520;19.144;2022-12-18T12:46:57;9.10;85.70
45619;DHT22;31343;47.520;19.144;2022-12-18T12:49:28;8.40;85.40
45619;DHT22;31343;47.520;19.144;2022-12-18T12:52:28;8.00;88.30
45619;DHT22;31343;47.520;19.144;2022-12-18T12:54:50;8.30;88.20
45619;DHT22;31343;47.520;19.144;2022-12-18T12:57:33;9.30;86.20
45619;DHT22;31343;47.520;19.144;2022-12-18T13:00:13;9.40;84.50
45619;DHT22;31343;47.520;19.144;2022-12-18T13:07:51;8.80;85.40
45619;DHT22;31343;47.520;19.144;2022-12-18T13:15:45;7.90;89.60
45619;DHT22;31343;47.520;19.144;2022-12-18T13:18:18;7.80;90.20
45619;DHT22;31343;47.520;19.144;2022-12-18T13:20:47;8.10;89.20
45619;DHT22;31343;47.520;19.144;2022-12-18T13:25:52;7.10;90.30
45619;DHT22;31343;47.520;19.144;2022-12-18T13:28:49;6.60;90.40
45619;DHT22;31343;47.520;19.144;2022-12-18T13:31:09;6.30;91.10
45619;DHT22;31343;47.520;19.144;2022-12-18T13:33:38;6.10;91.50
45619;DHT22;31343;47.520;19.144;2022-12-18T13:36:25;6.00;91.40
45619;DHT22;31343;47.520;19.144;2022-12-18T13:41:35;5.80;91.80
45619;DHT22;31343;47.520;19.144;2022-12-18T13:44:39;5.60;91.50
45619;DHT22;31343;47.520;19.144;2022-12-18T13:47:30;5.40;92.50
45619;DHT22;31343;47.520;19.144;2022-12-18T13:49:57;5.40;92.50
45619;DHT22;31343;47.520;19.144;2022-12-18T13:52:28;5.20;92.90
45619;DHT22;31343;47.520;19.144;2022-12-18T13:54:59;5.10;93.10
45619;DHT22;31343;47.520;19.144;2022-12-18T13:57:34;4.80;93.60
45619;DHT22;31343;47.520;19.144;2022-12-18T14:00:27;4.60;94.00
45619;DHT22;31343;47.520;19.144;2022-12-18T14:02:56;4.40;94.10
45619;DHT22;31343;47.520;19.144;2022-12-18T14:05:25;4.40;94.60
45619;DHT22;31343;47.520;19.144;2022-12-18T14:07:52;4.30;94.90
45619;DHT22;31343;47.520;19.144;2022-12-18T14:10:20;4.30;95.00
45619;DHT22;31343;47.520;19.144;2022-12-18T14:12:50;4.30;95.20
45619;DHT22;31343;47.520;19.144;2022-12-18T14:17:59;4.00;96.20
45619;DHT22;31343;47.520;19.144;2022-12-18T14:20:27;3.90;96.50
45619;DHT22;31343;47.520;19.144;2022-12-18T14:22:54;3.90;96.90
45619;DHT22;31343;47.520;19.144;2022-12-18T14:25:29;3.80;98.10
45619;DHT22;31343;47.520;19.144;2022-12-18T14:33:23;3.50;98.40
45619;DHT22;31343;47.520;19.144;2022-12-18T14:36:01;3.40;99.00
45619;DHT22;31343;47.520;19.144;2022-12-18T14:38:36;3.30;98.80
45619;DHT22;31343;47.520;19.144;2022-12-18T14:41:12;3.20;99.30
45619;DHT22;31343;47.520;19.144;2022-12-18T14:43:40;3.10;99.80
45619;DHT22;31343;47.520;19.144;2022-12-18T14:46:38;3.00;99.50
45619;DHT22;31343;47.520;19.144;2022-12-18T14:49:28;3.00;99.90
45619;DHT22;31343;47.520;19.144;2022-12-18T14:52:05;2.90;99.90
45619;DHT22;31343;47.520;19.144;2022-12-18T14:54:33;2.90;99.90
45619;DHT22;31343;47.520;19.144;2022-12-18T14:59:49;2.80;99.90
45619;DHT22;31343;47.520;19.144;2022-12-18T15:02:28;2.50;99.90
45619;DHT22;31343;47.520;19.144;2022-12-18T15:05:18;2.50;99.90
45619;DHT22;31343;47.520;19.144;2022-12-18T15:07:50;2.40;99.90
45619;DHT22;31343;47.520;19.144;2022-12-18T15:10:30;2.10;99.90
45619;DHT22;31343;47.520;19.144;2022-12-18T15:20:54;1.80;99.90
45619;DHT22;31343;47.520;19.144;2022-12-18T15:23:37;1.60;99.90
45619;DHT22;31343;47.520;19.144;2022-12-18T15:26:11;1.50;99.90
45619;DHT22;31343;47.520;19.144;2022-12-18T15:33:44;1.30;99.90
45619;DHT22;31343;47.520;19.144;2022-12-18T15:36:16;1.30;99.90
45619;DHT22;31343;47.520;19.144;2022-12-18T15:38:46;1.20;99.90
45619;DHT22;31343;47.520;19.144;2022-12-18T15:41:18;1.10;99.90
45619;DHT22;31343;47.520;19.144;2022-12-18T15:43:47;1.10;99.90
45619;DHT22;31343;47.520;19.144;2022-12-18T15:46:16;0.90;99.90
45619;DHT22;31343;47.520;19.144;2022-12-18T15:48:44;0.80;99.90
45619;DHT22;31343;47.520;19.144;2022-12-18T15:51:31;0.80;99.90
45619;DHT22;31343;47.520;19.144;2022-12-18T15:54:00;0.70;99.90
45619;DHT22;31343;47.520;19.144;2022-12-18T15:56:27;0.70;99.90
45619;DHT22;31343;47.520;19.144;2022-12-18T15:59:14;0.70;99.90
45619;DHT22;31343;47.520;19.144;2022-12-18T16:01:41;0.60;99.90
45619;DHT22;31343;47.520;19.144;2022-12-18T16:04:11;0.60;99.90
45619;DHT22;31343;47.520;19.144;2022-12-18T16:06:37;0.50;99.90
45619;DHT22;31343;47.520;19.144;2022-12-18T16:09:03;0.50;99.90
45619;DHT22;31343;47.520;19.144;2022-12-18T16:11:31;0.50;99.90
45619;DHT22;31343;47.520;19.144;2022-12-18T16:14:25;0.50;99.90
45619;DHT22;31343;47.520;19.144;2022-12-18T16:16:56;0.40;99.90
45619;DHT22;31343;47.520;19.144;2022-12-18T16:19:22;0.30;99.90
45619;DHT22;31343;47.520;19.144;2022-12-18T16:21:49;0.30;99.90
45619;DHT22;31343;47.520;19.144;2022-12-18T16:24:21;0.20;99.90
45619;DHT22;31343;47.520;19.144;2022-12-18T16:26:47;0.20;99.90
45619;DHT22;31343;47.520;19.144;2022-12-18T16:29:14;0.20;99.90
45619;DHT22;31343;47.520;19.144;2022-12-18T16:31:40;0.10;99.90
45619;DHT22;31343;47.520;19.144;2022-12-18T16:34:26;0.10;99.90
45619;DHT22;31343;47.520;19.144;2022-12-18T16:36:57;0.10;99.90
45619;DHT22;31343;47.520;19.144;2022-12-18T16:39:24;0.10;99.90
45619;DHT22;31343;47.520;19.144;2022-12-18T16:41:50;0.00;99.90
45619;DHT22;31343;47.520;19.144;2022-12-18T16:44:16;0.00;99.90
45619;DHT22;31343;47.520;19.144;2022-12-18T16:46:42;-0.10;99.90
45619;DHT22;31343;47.520;19.144;2022-12-18T16:49:11;-0.10;99.90
45619;DHT22;31343;47.520;19.144;2022-12-18T16:51:38;-0.10;99.90
45619;DHT22;31343;47.520;19.144;2022-12-18T16:54:04;-0.10;99.90
45619;DHT22;31343;47.520;19.144;2022-12-18T16:56:30;-0.10;99.90
45619;DHT22;31343;47.520;19.144;2022-12-18T16:58:58;-0.10;99.90
45619;DHT22;31343;47.520;19.144;2022-12-18T17:01:25;-0.30;99.90
45619;DHT22;31343;47.520;19.144;2022-12-18T17:03:59;-0.30;99.90
45619;DHT22;31343;47.520;19.144;2022-12-18T17:06:27;-0.30;99.90
45619;DHT22;31343;47.520;19.144;2022-12-18T17:09:01;-0.30;99.90
45619;DHT22;31343;47.520;19.144;2022-12-18T17:11:29;-0.40;99.90
45619;DHT22;31343;47.520;19.144;2022-12-18T17:13:55;-0.40;99.90
45619;DHT22;31343;47.520;19.144;2022-12-18T17:16:22;-0.40;99.90
45619;DHT22;31343;47.520;19.144;2022-12-18T17:18:48;-0.40;99.90
45619;DHT22;31343;47.520;19.144;2022-12-18T17:21:14;-0.50;99.90
45619;DHT22;31343;47.520;19.144;2022-12-18T17:23:41;-0.50;99.90